sensor_id;sensor_type;location;lat;lon;timestamp;pressure;altitude;pressure_sealevel;temperature;humidity
57050;BME280;42935;50.966;16.992;2023-03-04T00:01:07;101775.74;;;-1.46;100.00
57050;BME280;42935;50.966;16.992;2023-03-04T00:04:27;101774.08;;;-1.46;100.00
57050;BME280;42935;50.966;16.992;2023-03-04T00:07:43;101768.63;;;-1.40;100.00
57050;BME280;42935;50.966;16.992;2023-03-04T00:11:06;101764.88;;;-1.39;100.00
57050;BME280;42935;50.966;16.992;2023-03-04T00:14:26;101758.77;;;-1.39;100.00
57050;BME280;42935;50.966;16.992;2023-03-04T00:17:44;101740.60;;;-1.42;100.00
57050;BME280;42935;50.966;16.992;2023-03-04T00:21:05;101736.37;;;-1.40;100.00
57050;BME280;42935;50.966;16.992;2023-03-04T00:24:34;101737.39;;;-1.36;100.00
57050;BME280;42935;50.966;16.992;2023-03-04T00:27:58;101729.98;;;-1.41;100.00
57050;BME280;42935;50.966;16.992;2023-03-04T00:31:21;101709.58;;;-1.39;100.00
57050;BME280;42935;50.966;16.992;2023-03-04T00:34:40;101700.51;;;-1.38;100.00
57050;BME280;42935;50.966;16.992;2023-03-04T00:38:03;101708.10;;;-1.36;100.00
57050;BME280;42935;50.966;16.992;2023-03-04T00:41:25;101704.80;;;-1.29;100.00
57050;BME280;42935;50.966;16.992;2023-03-04T00:44:45;101690.52;;;-1.42;100.00
57050;BME280;42935;50.966;16.992;2023-03-04T00:48:12;101695.79;;;-1.34;100.00
57050;BME280;42935;50.966;16.992;2023-03-04T00:51:42;101690.78;;;-1.30;100.00
57050;BME280;42935;50.966;16.992;2023-03-04T00:55:01;101685.56;;;-1.29;100.00
57050;BME280;42935;50.966;16.992;2023-03-04T00:58:19;101679.05;;;-1.30;100.00
57050;BME280;42935;50.966;16.992;2023-03-04T01:01:38;101671.03;;;-1.32;100.00
57050;BME280;42935;50.966;16.992;2023-03-04T01:05:08;101665.44;;;-1.34;100.00
57050;BME280;42935;50.966;16.992;2023-03-04T01:08:29;101664.05;;;-1.26;100.00
57050;BME280;42935;50.966;16.992;2023-03-04T01:11:48;101648.69;;;-1.27;100.00
57050;BME280;42935;50.966;16.992;2023-03-04T01:15:15;101641.07;;;-1.31;100.00
57050;BME280;42935;50.966;16.992;2023-03-04T01:18:38;101652.20;;;-1.22;100.00
57050;BME280;42935;50.966;16.992;2023-03-04T01:22:04;101638.97;;;-1.24;100.00
57050;BME280;42935;50.966;16.992;2023-03-04T01:25:27;101640.71;;;-1.29;100.00
57050;BME280;42935;50.966;16.992;2023-03-04T01:28:46;101640.52;;;-1.23;100.00
57050;BME280;42935;50.966;16.992;2023-03-04T01:32:09;101621.18;;;-1.35;100.00
57050;BME280;42935;50.966;16.992;2023-03-04T01:35:33;101630.11;;;-1.24;100.00
57050;BME280;42935;50.966;16.992;2023-03-04T01:38:52;101633.14;;;-1.17;100.00
57050;BME280;42935;50.966;16.992;2023-03-04T01:42:22;101626.96;;;-1.22;100.00
57050;BME280;42935;50.966;16.992;2023-03-04T01:45:47;101618.77;;;-1.23;100.00
57050;BME280;42935;50.966;16.992;2023-03-04T01:49:02;101615.30;;;-1.28;100.00
57050;BME280;42935;50.966;16.992;2023-03-04T01:52:21;101570.94;;;-1.40;100.00
57050;BME280;42935;50.966;16.992;2023-03-04T01:59:23;101587.01;;;-1.26;100.00
57050;BME280;42935;50.966;16.992;2023-03-04T02:02:44;101597.40;;;-1.17;100.00
57050;BME280;42935;50.966;16.992;2023-03-04T02:06:04;101588.32;;;-1.23;100.00
57050;BME280;42935;50.966;16.992;2023-03-04T02:09:25;101587.48;;;-1.16;100.00
57050;BME280;42935;50.966;16.992;2023-03-04T02:12:45;101586.11;;;-1.14;100.00
57050;BME280;42935;50.966;16.992;2023-03-04T02:16:02;101574.30;;;-1.20;100.00
57050;BME280;42935;50.966;16.992;2023-03-04T02:19:41;101562.24;;;-1.26;100.00
57050;BME280;42935;50.966;16.992;2023-03-04T02:23:09;101573.76;;;-1.16;100.00
57050;BME280;42935;50.966;16.992;2023-03-04T02:26:30;101560.73;;;-1.15;100.00
57050;BME280;42935;50.966;16.992;2023-03-04T02:29:51;101564.81;;;-1.11;100.00
57050;BME280;42935;50.966;16.992;2023-03-04T02:33:18;101581.54;;;-1.05;100.00
57050;BME280;42935;50.966;16.992;2023-03-04T02:36:47;101564.77;;;-1.11;100.00
57050;BME280;42935;50.966;16.992;2023-03-04T02:40:22;101581.23;;;-1.03;100.00
57050;BME280;42935;50.966;16.992;2023-03-04T02:43:45;101579.66;;;-0.99;100.00
57050;BME280;42935;50.966;16.992;2023-03-04T02:47:12;101583.85;;;-0.96;100.00
57050;BME280;42935;50.966;16.992;2023-03-04T02:50:44;101573.39;;;-0.96;100.00
57050;BME280;42935;50.966;16.992;2023-03-04T02:54:04;101565.14;;;-0.93;100.00
57050;BME280;42935;50.966;16.992;2023-03-04T02:57:28;101545.73;;;-0.97;100.00
57050;BME280;42935;50.966;16.992;2023-03-04T03:00:56;101562.83;;;-0.93;100.00
57050;BME280;42935;50.966;16.992;2023-03-04T03:04:14;101559.55;;;-0.92;100.00
57050;BME280;42935;50.966;16.992;2023-03-04T03:07:45;101554.36;;;-0.92;100.00
57050;BME280;42935;50.966;16.992;2023-03-04T03:11:06;101552.67;;;-0.91;100.00
57050;BME280;42935;50.966;16.992;2023-03-04T03:14:31;101543.87;;;-0.90;100.00
57050;BME280;42935;50.966;16.992;2023-03-04T03:17:56;101553.51;;;-0.86;100.00
57050;BME280;42935;50.966;16.992;2023-03-04T03:21:17;101537.80;;;-0.89;100.00
57050;BME280;42935;50.966;16.992;2023-03-04T03:24:40;101543.76;;;-0.84;100.00
57050;BME280;42935;50.966;16.992;2023-03-04T03:28:07;101547.95;;;-0.83;100.00
57050;BME280;42935;50.966;16.992;2023-03-04T03:31:32;101543.70;;;-0.88;100.00
57050;BME280;42935;50.966;16.992;2023-03-04T03:34:55;101553.12;;;-0.81;100.00
57050;BME280;42935;50.966;16.992;2023-03-04T03:38:14;101548.35;;;-0.77;100.00
57050;BME280;42935;50.966;16.992;2023-03-04T03:41:38;101551.63;;;-0.82;100.00
57050;BME280;42935;50.966;16.992;2023-03-04T03:44:57;101552.09;;;-0.74;100.00
57050;BME280;42935;50.966;16.992;2023-03-04T03:48:20;101541.50;;;-0.72;100.00
57050;BME280;42935;50.966;16.992;2023-03-04T03:51:43;101531.16;;;-0.77;100.00
57050;BME280;42935;50.966;16.992;2023-03-04T03:55:07;101541.98;;;-0.72;100.00
57050;BME280;42935;50.966;16.992;2023-03-04T03:58:31;101530.55;;;-0.74;100.00
57050;BME280;42935;50.966;16.992;2023-03-04T04:01:54;101541.92;;;-0.68;100.00
57050;BME280;42935;50.966;16.992;2023-03-04T04:05:17;101530.91;;;-0.66;100.00
57050;BME280;42935;50.966;16.992;2023-03-04T04:08:36;101532.63;;;-0.65;100.00
57050;BME280;42935;50.966;16.992;2023-03-04T04:12:04;101520.13;;;-0.69;100.00
57050;BME280;42935;50.966;16.992;2023-03-04T04:15:25;101511.88;;;-0.69;100.00
57050;BME280;42935;50.966;16.992;2023-03-04T04:18:48;101511.75;;;-0.68;100.00
57050;BME280;42935;50.966;16.992;2023-03-04T04:22:16;101521.23;;;-0.58;100.00
57050;BME280;42935;50.966;16.992;2023-03-04T04:25:45;101514.52;;;-0.66;100.00
57050;BME280;42935;50.966;16.992;2023-03-04T04:29:13;101524.57;;;-0.60;100.00
57050;BME280;42935;50.966;16.992;2023-03-04T04:32:38;101512.49;;;-0.56;100.00
57050;BME280;42935;50.966;16.992;2023-03-04T04:35:58;101517.93;;;-0.51;100.00
57050;BME280;42935;50.966;16.992;2023-03-04T04:39:19;101498.73;;;-0.58;100.00
57050;BME280;42935;50.966;16.992;2023-03-04T04:42:38;101504.27;;;-0.59;100.00
57050;BME280;42935;50.966;16.992;2023-03-04T04:46:05;101506.00;;;-0.57;100.00
57050;BME280;42935;50.966;16.992;2023-03-04T04:49:33;101512.08;;;-0.51;100.00
57050;BME280;42935;50.966;16.992;2023-03-04T04:52:57;101499.88;;;-0.50;100.00
57050;BME280;42935;50.966;16.992;2023-03-04T04:56:24;101497.05;;;-0.44;100.00
57050;BME280;42935;50.966;16.992;2023-03-04T04:59:49;101488.41;;;-0.46;100.00
57050;BME280;42935;50.966;16.992;2023-03-04T05:03:13;101484.89;;;-0.45;100.00
57050;BME280;42935;50.966;16.992;2023-03-04T05:06:40;101479.84;;;-0.46;100.00
57050;BME280;42935;50.966;16.992;2023-03-04T05:10:09;101474.95;;;-0.42;100.00
57050;BME280;42935;50.966;16.992;2023-03-04T05:13:37;101464.03;;;-0.51;100.00
57050;BME280;42935;50.966;16.992;2023-03-04T05:17:00;101465.97;;;-0.47;100.00
57050;BME280;42935;50.966;16.992;2023-03-04T05:20:27;101449.69;;;-0.52;100.00
57050;BME280;42935;50.966;16.992;2023-03-04T05:23:44;101432.18;;;-0.61;100.00
57050;BME280;42935;50.966;16.992;2023-03-04T05:27:00;101441.94;;;-0.58;100.00
57050;BME280;42935;50.966;16.992;2023-03-04T05:30:20;101440.03;;;-0.54;100.00
57050;BME280;42935;50.966;16.992;2023-03-04T05:34:15;101448.67;;;-0.61;100.00
57050;BME280;42935;50.966;16.992;2023-03-04T05:37:34;101462.37;;;-0.51;100.00
57050;BME280;42935;50.966;16.992;2023-03-04T05:40:59;101458.41;;;-0.47;100.00
57050;BME280;42935;50.966;16.992;2023-03-04T05:44:23;101454.09;;;-0.47;100.00
57050;BME280;42935;50.966;16.992;2023-03-04T05:47:48;101457.55;;;-0.38;100.00
57050;BME280;42935;50.966;16.992;2023-03-04T05:51:08;101463.37;;;-0.37;100.00
57050;BME280;42935;50.966;16.992;2023-03-04T05:54:30;101457.00;;;-0.38;100.00
57050;BME280;42935;50.966;16.992;2023-03-04T05:57:57;101430.64;;;-0.55;100.00
57050;BME280;42935;50.966;16.992;2023-03-04T06:01:21;101452.22;;;-0.31;100.00
57050;BME280;42935;50.966;16.992;2023-03-04T06:04:41;101451.76;;;-0.29;100.00
57050;BME280;42935;50.966;16.992;2023-03-04T06:07:58;101456.55;;;-0.26;100.00
57050;BME280;42935;50.966;16.992;2023-03-04T06:11:20;101472.15;;;-0.16;100.00
57050;BME280;42935;50.966;16.992;2023-03-04T06:14:46;101461.50;;;-0.14;100.00
57050;BME280;42935;50.966;16.992;2023-03-04T06:18:07;101470.06;;;-0.04;100.00
57050;BME280;42935;50.966;16.992;2023-03-04T06:21:28;101477.09;;;-0.08;100.00
57050;BME280;42935;50.966;16.992;2023-03-04T06:24:48;101476.16;;;0.01;100.00
57050;BME280;42935;50.966;16.992;2023-03-04T06:28:07;101481.22;;;0.08;100.00
57050;BME280;42935;50.966;16.992;2023-03-04T06:31:27;101478.28;;;0.08;100.00
57050;BME280;42935;50.966;16.992;2023-03-04T06:34:55;101479.59;;;0.11;100.00
57050;BME280;42935;50.966;16.992;2023-03-04T06:38:19;101468.13;;;0.05;100.00
57050;BME280;42935;50.966;16.992;2023-03-04T06:41:47;101473.35;;;0.05;100.00
57050;BME280;42935;50.966;16.992;2023-03-04T06:45:11;101477.40;;;0.13;100.00
57050;BME280;42935;50.966;16.992;2023-03-04T06:48:35;101473.91;;;0.08;100.00
57050;BME280;42935;50.966;16.992;2023-03-04T06:51:53;101479.59;;;0.08;100.00
57050;BME280;42935;50.966;16.992;2023-03-04T06:55:19;101478.23;;;0.10;100.00
57050;BME280;42935;50.966;16.992;2023-03-04T06:58:40;101483.34;;;0.16;100.00
57050;BME280;42935;50.966;16.992;2023-03-04T07:01:58;101480.61;;;0.10;100.00
57050;BME280;42935;50.966;16.992;2023-03-04T07:05:26;101487.65;;;0.10;100.00
57050;BME280;42935;50.966;16.992;2023-03-04T07:08:49;101497.20;;;0.12;100.00
57050;BME280;42935;50.966;16.992;2023-03-04T07:12:11;101505.36;;;0.18;100.00
57050;BME280;42935;50.966;16.992;2023-03-04T07:15:39;101509.09;;;0.17;100.00
57050;BME280;42935;50.966;16.992;2023-03-04T07:19:04;101514.14;;;0.15;100.00
57050;BME280;42935;50.966;16.992;2023-03-04T07:22:29;101523.42;;;0.18;100.00
57050;BME280;42935;50.966;16.992;2023-03-04T07:25:53;101498.98;;;0.12;100.00
57050;BME280;42935;50.966;16.992;2023-03-04T07:29:13;101499.77;;;0.22;100.00
57050;BME280;42935;50.966;16.992;2023-03-04T07:32:42;101510.12;;;0.27;100.00
57050;BME280;42935;50.966;16.992;2023-03-04T07:36:35;101502.27;;;0.30;100.00
57050;BME280;42935;50.966;16.992;2023-03-04T07:40:05;101490.83;;;0.24;100.00
57050;BME280;42935;50.966;16.992;2023-03-04T07:43:25;101490.68;;;0.24;100.00
57050;BME280;42935;50.966;16.992;2023-03-04T07:46:50;101508.54;;;0.29;100.00
57050;BME280;42935;50.966;16.992;2023-03-04T07:50:12;101491.42;;;0.30;100.00
57050;BME280;42935;50.966;16.992;2023-03-04T07:53:32;101496.10;;;0.29;100.00
57050;BME280;42935;50.966;16.992;2023-03-04T07:56:51;101491.13;;;0.24;100.00
57050;BME280;42935;50.966;16.992;2023-03-04T08:00:16;101478.62;;;0.25;100.00
57050;BME280;42935;50.966;16.992;2023-03-04T08:03:39;101487.55;;;0.31;100.00
57050;BME280;42935;50.966;16.992;2023-03-04T08:07:07;101481.20;;;0.37;100.00
57050;BME280;42935;50.966;16.992;2023-03-04T08:10:27;101482.37;;;0.40;100.00
57050;BME280;42935;50.966;16.992;2023-03-04T08:13:48;101478.04;;;0.42;100.00
57050;BME280;42935;50.966;16.992;2023-03-04T08:17:15;101466.70;;;0.39;100.00
57050;BME280;42935;50.966;16.992;2023-03-04T08:20:43;101464.96;;;0.39;100.00
57050;BME280;42935;50.966;16.992;2023-03-04T08:24:10;101476.03;;;0.47;100.00
57050;BME280;42935;50.966;16.992;2023-03-04T08:27:31;101470.17;;;0.54;100.00
57050;BME280;42935;50.966;16.992;2023-03-04T08:30:54;101472.82;;;0.58;100.00
57050;BME280;42935;50.966;16.992;2023-03-04T08:34:17;101463.55;;;0.56;100.00
57050;BME280;42935;50.966;16.992;2023-03-04T08:37:34;101469.41;;;0.70;100.00
57050;BME280;42935;50.966;16.992;2023-03-04T08:41:01;101473.10;;;0.74;100.00
57050;BME280;42935;50.966;16.992;2023-03-04T08:44:21;101456.31;;;0.73;100.00
57050;BME280;42935;50.966;16.992;2023-03-04T08:47:40;101446.59;;;0.71;100.00
57050;BME280;42935;50.966;16.992;2023-03-04T08:51:10;101452.14;;;0.77;100.00
57050;BME280;42935;50.966;16.992;2023-03-04T08:54:31;101457.11;;;0.82;100.00
57050;BME280;42935;50.966;16.992;2023-03-04T08:57:52;101462.32;;;0.92;100.00
57050;BME280;42935;50.966;16.992;2023-03-04T09:01:13;101460.10;;;1.06;100.00
57050;BME280;42935;50.966;16.992;2023-03-04T09:04:37;101463.32;;;1.10;100.00
57050;BME280;42935;50.966;16.992;2023-03-04T09:07:58;101470.88;;;1.17;100.00
57050;BME280;42935;50.966;16.992;2023-03-04T09:11:18;101454.24;;;1.17;100.00
57050;BME280;42935;50.966;16.992;2023-03-04T09:14:46;101459.63;;;1.26;100.00
57050;BME280;42935;50.966;16.992;2023-03-04T09:18:05;101462.29;;;1.35;100.00
57050;BME280;42935;50.966;16.992;2023-03-04T09:21:24;101451.41;;;1.47;100.00
57050;BME280;42935;50.966;16.992;2023-03-04T09:24:44;101452.22;;;1.47;100.00
57050;BME280;42935;50.966;16.992;2023-03-04T09:28:01;101445.47;;;1.55;100.00
57050;BME280;42935;50.966;16.992;2023-03-04T09:31:19;101439.00;;;1.51;100.00
57050;BME280;42935;50.966;16.992;2023-03-04T09:34:37;101450.84;;;1.70;100.00
57050;BME280;42935;50.966;16.992;2023-03-04T09:37:54;101450.97;;;1.69;100.00
57050;BME280;42935;50.966;16.992;2023-03-04T09:41:18;101448.70;;;1.77;100.00
57050;BME280;42935;50.966;16.992;2023-03-04T09:44:42;101442.56;;;1.72;100.00
57050;BME280;42935;50.966;16.992;2023-03-04T09:48:05;101455.52;;;1.77;100.00
57050;BME280;42935;50.966;16.992;2023-03-04T10:02:06;101445.53;;;1.86;100.00
57050;BME280;42935;50.966;16.992;2023-03-04T10:05:25;101434.32;;;1.85;100.00
57050;BME280;42935;50.966;16.992;2023-03-04T10:09:09;101429.34;;;1.82;100.00
57050;BME280;42935;50.966;16.992;2023-03-04T10:12:26;101425.87;;;2.02;100.00
57050;BME280;42935;50.966;16.992;2023-03-04T10:15:50;101420.51;;;2.08;100.00
57050;BME280;42935;50.966;16.992;2023-03-04T10:19:39;101427.63;;;2.12;100.00
57050;BME280;42935;50.966;16.992;2023-03-04T10:22:58;101405.61;;;2.19;100.00
57050;BME280;42935;50.966;16.992;2023-03-04T10:26:20;101403.89;;;2.42;100.00
57050;BME280;42935;50.966;16.992;2023-03-04T10:29:43;101401.85;;;2.32;100.00
57050;BME280;42935;50.966;16.992;2023-03-04T10:33:00;101407.91;;;2.44;100.00
57050;BME280;42935;50.966;16.992;2023-03-04T10:39:50;101401.13;;;2.57;100.00
57050;BME280;42935;50.966;16.992;2023-03-04T10:43:18;101394.65;;;2.55;100.00
57050;BME280;42935;50.966;16.992;2023-03-04T10:46:43;101395.13;;;2.57;100.00
57050;BME280;42935;50.966;16.992;2023-03-04T10:50:04;101387.63;;;2.69;100.00
57050;BME280;42935;50.966;16.992;2023-03-04T10:53:31;101388.88;;;2.64;100.00
57050;BME280;42935;50.966;16.992;2023-03-04T10:56:57;101380.83;;;2.79;100.00
57050;BME280;42935;50.966;16.992;2023-03-04T11:03:48;101379.78;;;2.65;100.00
57050;BME280;42935;50.966;16.992;2023-03-04T11:07:11;101374.92;;;2.67;100.00
57050;BME280;42935;50.966;16.992;2023-03-04T11:10:39;101385.79;;;2.60;100.00
57050;BME280;42935;50.966;16.992;2023-03-04T11:14:01;101363.43;;;2.70;100.00
57050;BME280;42935;50.966;16.992;2023-03-04T11:17:27;101365.80;;;2.74;100.00
57050;BME280;42935;50.966;16.992;2023-03-04T11:20:48;101356.72;;;2.85;100.00
57050;BME280;42935;50.966;16.992;2023-03-04T11:24:14;101338.35;;;2.77;100.00
57050;BME280;42935;50.966;16.992;2023-03-04T11:27:43;101361.23;;;2.91;100.00
57050;BME280;42935;50.966;16.992;2023-03-04T11:31:13;101355.52;;;2.98;100.00
57050;BME280;42935;50.966;16.992;2023-03-04T11:34:41;101358.92;;;3.03;100.00
57050;BME280;42935;50.966;16.992;2023-03-04T11:38:14;101359.01;;;3.05;100.00
57050;BME280;42935;50.966;16.992;2023-03-04T11:41:42;101350.16;;;2.93;100.00
57050;BME280;42935;50.966;16.992;2023-03-04T11:45:00;101363.27;;;2.88;100.00
57050;BME280;42935;50.966;16.992;2023-03-04T11:52:00;101345.77;;;2.76;100.00
57050;BME280;42935;50.966;16.992;2023-03-04T12:02:20;101350.23;;;2.76;100.00
57050;BME280;42935;50.966;16.992;2023-03-04T12:05:50;101338.16;;;2.68;100.00
57050;BME280;42935;50.966;16.992;2023-03-04T12:13:22;101322.47;;;2.86;100.00
57050;BME280;42935;50.966;16.992;2023-03-04T12:34:26;101329.11;;;3.09;100.00
57050;BME280;42935;50.966;16.992;2023-03-04T12:41:29;101319.54;;;3.12;100.00
57050;BME280;42935;50.966;16.992;2023-03-04T12:45:26;101300.42;;;3.16;100.00
57050;BME280;42935;50.966;16.992;2023-03-04T12:52:36;101312.26;;;3.15;100.00
57050;BME280;42935;50.966;16.992;2023-03-04T12:55:49;101308.38;;;3.19;100.00
57050;BME280;42935;50.966;16.992;2023-03-04T12:59:16;101307.28;;;3.18;100.00
57050;BME280;42935;50.966;16.992;2023-03-04T13:09:46;101295.95;;;3.43;100.00
57050;BME280;42935;50.966;16.992;2023-03-04T13:13:03;101296.45;;;3.33;100.00
57050;BME280;42935;50.966;16.992;2023-03-04T13:19:57;101285.55;;;3.42;100.00
57050;BME280;42935;50.966;16.992;2023-03-04T13:23:25;101277.02;;;3.45;100.00
57050;BME280;42935;50.966;16.992;2023-03-04T13:26:46;101283.99;;;3.55;100.00
57050;BME280;42935;50.966;16.992;2023-03-04T13:33:46;101292.65;;;3.62;100.00
57050;BME280;42935;50.966;16.992;2023-03-04T13:40:35;101295.30;;;3.60;100.00
57050;BME280;42935;50.966;16.992;2023-03-04T13:43:59;101276.90;;;3.65;100.00
57050;BME280;42935;50.966;16.992;2023-03-04T13:47:32;101258.64;;;3.65;100.00
57050;BME280;42935;50.966;16.992;2023-03-04T13:50:54;101271.33;;;3.72;100.00
57050;BME280;42935;50.966;16.992;2023-03-04T13:57:49;101265.92;;;3.77;100.00
57050;BME280;42935;50.966;16.992;2023-03-04T14:04:43;101263.91;;;3.74;100.00
57050;BME280;42935;50.966;16.992;2023-03-04T14:11:35;101260.16;;;3.48;100.00
57050;BME280;42935;50.966;16.992;2023-03-04T14:15:00;101252.50;;;3.48;100.00
57050;BME280;42935;50.966;16.992;2023-03-04T14:18:17;101241.62;;;3.50;100.00
57050;BME280;42935;50.966;16.992;2023-03-04T14:21:35;101272.27;;;3.53;100.00
57050;BME280;42935;50.966;16.992;2023-03-04T14:24:57;101258.63;;;3.42;100.00
57050;BME280;42935;50.966;16.992;2023-03-04T14:28:18;101262.46;;;3.44;100.00
57050;BME280;42935;50.966;16.992;2023-03-04T14:31:35;101260.35;;;3.54;100.00
57050;BME280;42935;50.966;16.992;2023-03-04T14:35:04;101263.66;;;3.64;100.00
57050;BME280;42935;50.966;16.992;2023-03-04T14:38:30;101266.68;;;3.69;100.00
57050;BME280;42935;50.966;16.992;2023-03-04T14:41:54;101251.58;;;3.51;100.00
57050;BME280;42935;50.966;16.992;2023-03-04T14:45:15;101263.01;;;3.55;100.00
57050;BME280;42935;50.966;16.992;2023-03-04T14:48:35;101247.67;;;3.44;100.00
57050;BME280;42935;50.966;16.992;2023-03-04T14:51:57;101256.44;;;3.42;100.00
57050;BME280;42935;50.966;16.992;2023-03-04T15:05:37;101249.36;;;3.39;100.00
57050;BME280;42935;50.966;16.992;2023-03-04T15:09:02;101260.54;;;3.36;100.00
57050;BME280;42935;50.966;16.992;2023-03-04T15:12:24;101256.20;;;3.37;100.00
57050;BME280;42935;50.966;16.992;2023-03-04T15:15:45;101252.03;;;3.32;100.00
57050;BME280;42935;50.966;16.992;2023-03-04T15:19:04;101238.82;;;3.28;100.00
57050;BME280;42935;50.966;16.992;2023-03-04T15:22:21;101240.52;;;3.22;100.00
57050;BME280;42935;50.966;16.992;2023-03-04T15:25:36;101237.99;;;3.18;100.00
57050;BME280;42935;50.966;16.992;2023-03-04T15:28:54;101238.41;;;3.16;100.00
57050;BME280;42935;50.966;16.992;2023-03-04T15:32:11;101235.62;;;3.15;100.00
57050;BME280;42935;50.966;16.992;2023-03-04T15:35:35;101224.32;;;3.09;100.00
57050;BME280;42935;50.966;16.992;2023-03-04T15:39:04;101218.90;;;3.02;100.00
57050;BME280;42935;50.966;16.992;2023-03-04T15:42:27;101228.80;;;3.10;100.00
57050;BME280;42935;50.966;16.992;2023-03-04T15:45:51;101224.75;;;3.00;100.00
57050;BME280;42935;50.966;16.992;2023-03-04T15:49:15;101237.13;;;3.02;100.00
57050;BME280;42935;50.966;16.992;2023-03-04T15:52:32;101231.45;;;2.94;100.00
57050;BME280;42935;50.966;16.992;2023-03-04T15:55:52;101228.59;;;2.88;100.00
57050;BME280;42935;50.966;16.992;2023-03-04T15:59:14;101232.20;;;2.87;100.00
57050;BME280;42935;50.966;16.992;2023-03-04T16:02:31;101233.67;;;2.86;100.00
57050;BME280;42935;50.966;16.992;2023-03-04T16:05:50;101242.12;;;2.88;100.00
57050;BME280;42935;50.966;16.992;2023-03-04T16:09:14;101235.31;;;2.82;100.00
57050;BME280;42935;50.966;16.992;2023-03-04T16:12:35;101240.10;;;2.84;100.00
57050;BME280;42935;50.966;16.992;2023-03-04T16:15:51;101242.65;;;2.87;100.00
57050;BME280;42935;50.966;16.992;2023-03-04T16:19:09;101250.20;;;2.85;100.00
57050;BME280;42935;50.966;16.992;2023-03-04T16:22:33;101239.02;;;2.79;100.00
57050;BME280;42935;50.966;16.992;2023-03-04T16:25:54;101244.48;;;2.81;100.00
57050;BME280;42935;50.966;16.992;2023-03-04T16:29:15;101253.21;;;2.86;100.00
57050;BME280;42935;50.966;16.992;2023-03-04T16:32:35;101258.44;;;2.85;100.00
57050;BME280;42935;50.966;16.992;2023-03-04T16:35:52;101260.29;;;2.83;100.00
57050;BME280;42935;50.966;16.992;2023-03-04T16:39:19;101253.10;;;2.77;100.00
57050;BME280;42935;50.966;16.992;2023-03-04T16:42:36;101266.34;;;2.78;100.00
57050;BME280;42935;50.966;16.992;2023-03-04T16:45:57;101272.29;;;2.77;100.00
57050;BME280;42935;50.966;16.992;2023-03-04T16:49:18;101278.09;;;2.77;100.00
57050;BME280;42935;50.966;16.992;2023-03-04T16:52:35;101267.32;;;2.69;100.00
57050;BME280;42935;50.966;16.992;2023-03-04T16:55:51;101279.18;;;2.74;100.00
57050;BME280;42935;50.966;16.992;2023-03-04T16:59:15;101283.02;;;2.74;100.00
57050;BME280;42935;50.966;16.992;2023-03-04T17:02:39;101280.56;;;2.70;100.00
57050;BME280;42935;50.966;16.992;2023-03-04T17:05:59;101279.45;;;2.69;100.00
57050;BME280;42935;50.966;16.992;2023-03-04T17:09:19;101282.24;;;2.69;100.00
57050;BME280;42935;50.966;16.992;2023-03-04T17:12:34;101273.68;;;2.62;100.00
57050;BME280;42935;50.966;16.992;2023-03-04T17:15:52;101258.78;;;2.50;100.00
57050;BME280;42935;50.966;16.992;2023-03-04T17:19:09;101272.66;;;2.67;100.00
57050;BME280;42935;50.966;16.992;2023-03-04T17:22:28;101278.59;;;2.69;100.00
57050;BME280;42935;50.966;16.992;2023-03-04T17:25:53;101276.18;;;2.67;100.00
57050;BME280;42935;50.966;16.992;2023-03-04T17:29:13;101280.85;;;2.67;100.00
57050;BME280;42935;50.966;16.992;2023-03-04T17:32:38;101276.37;;;2.69;100.00
57050;BME280;42935;50.966;16.992;2023-03-04T17:35:55;101281.99;;;2.71;100.00
57050;BME280;42935;50.966;16.992;2023-03-04T17:39:15;101261.85;;;2.59;100.00
57050;BME280;42935;50.966;16.992;2023-03-04T17:42:39;101288.83;;;2.73;100.00
57050;BME280;42935;50.966;16.992;2023-03-04T17:46:07;101290.55;;;2.77;100.00
57050;BME280;42935;50.966;16.992;2023-03-04T17:49:57;101285.41;;;2.67;100.00
57050;BME280;42935;50.966;16.992;2023-03-04T17:53:21;101299.77;;;2.70;100.00
57050;BME280;42935;50.966;16.992;2023-03-04T17:56:41;101306.97;;;2.69;100.00
57050;BME280;42935;50.966;16.992;2023-03-04T18:00:02;101308.84;;;2.70;100.00
57050;BME280;42935;50.966;16.992;2023-03-04T18:03:19;101304.90;;;2.68;100.00
57050;BME280;42935;50.966;16.992;2023-03-04T18:06:41;101302.44;;;2.62;100.00
57050;BME280;42935;50.966;16.992;2023-03-04T18:09:58;101305.79;;;2.66;100.00
57050;BME280;42935;50.966;16.992;2023-03-04T18:13:17;101310.15;;;2.63;100.00
57050;BME280;42935;50.966;16.992;2023-03-04T18:16:39;101315.26;;;2.62;100.00
57050;BME280;42935;50.966;16.992;2023-03-04T18:19:54;101300.15;;;2.51;100.00
57050;BME280;42935;50.966;16.992;2023-03-04T18:23:14;101313.94;;;2.63;100.00
57050;BME280;42935;50.966;16.992;2023-03-04T18:26:35;101303.38;;;2.54;100.00
57050;BME280;42935;50.966;16.992;2023-03-04T18:29:55;101273.99;;;2.34;100.00
57050;BME280;42935;50.966;16.992;2023-03-04T18:33:17;101302.87;;;2.53;100.00
57050;BME280;42935;50.966;16.992;2023-03-04T18:36:41;101316.77;;;2.58;100.00
57050;BME280;42935;50.966;16.992;2023-03-04T18:39:54;101323.91;;;2.61;100.00
57050;BME280;42935;50.966;16.992;2023-03-04T18:43:14;101314.62;;;2.53;100.00
57050;BME280;42935;50.966;16.992;2023-03-04T18:46:44;101324.20;;;2.58;100.00
57050;BME280;42935;50.966;16.992;2023-03-04T18:50:02;101308.42;;;2.49;100.00
57050;BME280;42935;50.966;16.992;2023-03-04T18:53:19;101325.66;;;2.57;100.00
57050;BME280;42935;50.966;16.992;2023-03-04T18:56:46;101328.51;;;2.49;100.00
57050;BME280;42935;50.966;16.992;2023-03-04T19:00:10;101325.05;;;2.51;100.00